EST,Max TemperatureF,Mean TemperatureF,Min TemperatureF,Max Dew PointF,MeanDew PointF,Min DewpointF,Max Humidity, Mean Humidity, Min Humidity, Max Sea Level PressureIn, Mean Sea Level PressureIn, Min Sea Level PressureIn, Max VisibilityMiles, Mean VisibilityMiles, Min VisibilityMiles, Max Wind SpeedMPH, Mean Wind SpeedMPH, Max Gust SpeedMPH,PrecipitationIn, CloudCover, Events, WindDirDegrees
2013-2-1,33,28,24,19,11,4,64,47,35,30.11,29.84,29.65,10,9,2,24,16,36,0.00,4,Snow,283
2013-2-2,32,26,21,28,14,5,93,59,43,30.27,30.14,30.05,10,8,2,15,12,26,0.00,4,Snow,267
2013-2-3,34,26,19,28,22,16,93,81,59,30.05,29.88,29.70,10,7,1,16,9,23,0.01,6,Snow,333
2013-2-4,30,28,25,23,13,7,86,58,38,29.96,29.81,29.71,10,8,2,20,12,30,0.00,3,Snow,299
2013-2-5,30,28,25,29,21,5,100,79,39,30.02,29.96,29.91,10,6,1,13,8,20,0.02,8,Snow,46
2013-2-6,39,34,28,33,26,7,100,79,40,30.28,30.02,29.89,10,9,5,14,6,24,0.00,5,Snow,316
2013-2-7,30,26,21,22,10,3,86,53,32,30.52,30.45,30.30,10,10,10,14,9,17,0.00,2,,13
2013-2-8,34,31,28,34,30,25,100,91,75,30.44,29.94,29.25,10,4,0,41,19,56,1.18,8,Fog-Snow,70
2013-2-9,30,24,17,31,16,8,100,80,65,30.15,29.71,29.22,10,3,0,40,30,61,0.08,6,Fog-Snow,339
2013-2-10,32,23,10,19,10,5,95,64,47,30.39,30.33,30.17,10,10,10,20,13,29,0.00,0,,303
2013-2-11,46,29,12,47,38,9,100,95,82,30.37,29.91,29.62,10,4,0,24,9,31,0.25,7,Fog-Rain,192
2013-2-12,45,40,34,45,32,25,100,77,52,29.90,29.73,29.61,10,10,3,14,9,26,0.00,1,,280
2013-2-13,39,34,28,29,25,22,89,68,50,29.89,29.81,29.65,10,10,10,10,7,20,0.00,1,,265
2013-2-14,43,34,21,32,28,22,100,85,45,30.03,29.81,29.67,10,7,1,15,8,18,0.09,4,Snow,350
2013-2-15,46,32,19,38,27,17,100,94,71,30.06,30.01,29.95,10,4,0,16,3,22,0.00,0,Fog,196
2013-2-16,37,30,23,36,30,23,100,96,75,29.95,29.85,29.61,10,4,0,18,4,26,0.12,6,Fog-Rain-Snow,4
2013-2-17,34,28,19,31,18,4,93,77,39,29.66,29.43,29.32,10,3,0,32,22,46,0.00,7,Fog-Rain-Snow,328
2013-2-18,30,24,18,10,4,2,52,41,30,30.18,29.98,29.69,10,10,8,26,19,40,0.00,0,Snow,295
2013-2-19,46,36,27,46,36,14,100,83,51,30.19,29.87,29.61,10,8,2,21,11,30,0.36,5,Rain,206
2013-2-20,44,36,27,43,24,9,100,66,39,29.81,29.66,29.57,10,10,10,20,11,31,0.53,5,,275
2013-2-21,34,30,27,17,14,12,61,52,40,30.12,29.89,29.79,10,10,10,22,16,31,0.00,3,,304
2013-2-22,37,34,30,26,23,18,75,65,55,30.35,30.30,30.16,10,10,10,21,13,30,0.00,8,,4
2013-2-23,39,34,30,39,32,25,100,86,67,30.33,30.12,29.82,10,9,5,17,7,26,0.20,8,Rain,101
2013-2-24,44,38,32,45,40,32,100,100,96,29.84,29.64,29.53,10,4,1,23,17,32,1.37,8,Rain-Snow,22
2013-2-25,42,35,28,32,29,25,100,85,57,30.25,30.05,29.84,10,9,2,15,11,21,0.00,5,Snow,355
2013-2-26,43,33,23,35,27,22,100,75,47,30.33,30.26,30.12,10,10,6,16,4,22,0.00,3,,83
2013-2-27,45,42,39,45,42,36,100,97,89,30.08,29.72,29.57,10,4,0,30,18,45,0.67,8,Fog-Rain,114
2013-2-28,48,42,37,41,38,36,100,93,63,29.64,29.57,29.50,10,7,0,13,6,20,0.02,8,Fog-Rain,259